createdAt,value
2018-01-25T00:00:32.553Z,35.90
2018-01-25T00:03:02.270Z,23.23
2018-01-25T00:05:31.986Z,13.13
2018-01-25T00:08:01.717Z,17.53
2018-01-25T00:10:31.410Z,19.87
2018-01-25T00:13:01.935Z,19.20
2018-01-25T00:15:32.423Z,23.13
2018-01-25T00:18:02.131Z,20.10
2018-01-25T00:20:31.817Z,23.27
2018-01-25T00:23:01.557Z,31.87
2018-01-25T00:25:31.286Z,37.83
2018-01-25T00:28:00.983Z,21.50
2018-01-25T00:30:30.685Z,20.70
2018-01-25T00:33:00.371Z,17.80
2018-01-25T00:35:30.130Z,20.53
2018-01-25T00:37:59.862Z,13.00
2018-01-25T00:40:30.362Z,22.23
2018-01-25T00:43:00.030Z,18.50
2018-01-25T00:45:29.694Z,31.57
2018-01-25T00:48:00.151Z,20.13
2018-01-25T00:50:29.858Z,28.53
2018-01-25T00:52:59.542Z,26.43
2018-01-25T00:55:30.054Z,23.23
2018-01-25T00:57:59.704Z,26.73
2018-01-25T01:00:29.449Z,23.20
2018-01-25T01:02:59.145Z,35.70
2018-01-25T01:05:28.838Z,23.37
2018-01-25T01:07:58.509Z,19.10
2018-01-25T01:10:29.017Z,24.87
2018-01-25T01:12:58.714Z,19.70
2018-01-25T01:15:28.429Z,19.50
2018-01-25T01:17:59.172Z,15.67
2018-01-25T01:20:28.913Z,20.00
2018-01-25T01:22:58.664Z,20.47
2018-01-25T01:25:28.357Z,18.37
2018-01-25T01:27:58.753Z,13.63
2018-01-25T01:30:29.842Z,32.90
2018-01-25T01:32:59.512Z,31.17
2018-01-25T01:35:29.969Z,43.67
2018-01-25T01:37:59.671Z,45.73
2018-01-25T01:40:30.137Z,34.63
2018-01-25T01:42:59.884Z,49.70
2018-01-25T01:45:30.357Z,33.83
2018-01-25T01:48:00.073Z,56.23
2018-01-25T01:50:29.749Z,43.00
2018-01-25T01:52:59.456Z,46.83
2018-01-25T01:55:29.161Z,43.03
2018-01-25T01:57:58.860Z,53.40
2018-01-25T02:00:29.315Z,53.20
2018-01-25T02:02:59.041Z,52.00
2018-01-25T02:05:28.773Z,48.23
2018-01-25T02:07:58.584Z,39.57
2018-01-25T02:10:29.338Z,43.13
2018-01-25T02:12:59.846Z,34.77
2018-01-25T02:15:29.566Z,44.37
2018-01-25T02:17:59.302Z,45.33
2018-01-25T02:20:29.000Z,33.50
2018-01-25T02:22:59.426Z,35.33
2018-01-25T02:25:29.936Z,34.70
2018-01-25T02:27:59.704Z,33.37
2018-01-25T02:30:29.410Z,33.77
2018-01-25T02:32:59.080Z,31.30
2018-01-25T02:35:30.686Z,31.40
2018-01-25T02:38:00.386Z,32.87
2018-01-25T02:40:30.113Z,37.80
2018-01-25T02:42:59.791Z,36.97
2018-01-25T02:45:29.488Z,50.63
2018-01-25T02:48:00.020Z,38.33
2018-01-25T02:50:29.716Z,31.40
2018-01-25T02:53:00.227Z,37.47
2018-01-25T02:55:30.381Z,38.40
2018-01-25T02:58:00.102Z,37.47
2018-01-25T03:00:30.136Z,34.43
2018-01-25T03:02:59.826Z,44.63
2018-01-25T03:05:29.564Z,51.43
2018-01-25T03:07:59.258Z,59.70
2018-01-25T03:10:28.966Z,45.77
2018-01-25T03:12:58.674Z,55.47
2018-01-25T03:15:28.430Z,47.93
2018-01-25T03:17:58.932Z,50.97
2018-01-25T03:20:29.261Z,42.57
2018-01-25T03:22:58.955Z,48.53
2018-01-25T03:25:28.633Z,59.13
2018-01-25T03:27:58.302Z,55.67
2018-01-25T03:30:28.436Z,61.63
2018-01-25T03:32:58.879Z,53.13
2018-01-25T03:35:29.322Z,61.57
2018-01-25T03:38:00.040Z,50.73
2018-01-25T03:40:31.383Z,50.57
2018-01-25T03:43:01.822Z,50.03
2018-01-25T03:45:32.358Z,50.97
2018-01-25T03:48:02.570Z,53.97
2018-01-25T03:50:33.040Z,38.57
2018-01-25T03:53:02.727Z,40.30
2018-01-25T03:55:32.641Z,47.10
2018-01-25T03:58:02.342Z,40.67
2018-01-25T04:00:32.094Z,39.30
2018-01-25T04:03:01.778Z,40.50
2018-01-25T04:05:31.503Z,37.33
2018-01-25T04:08:01.262Z,46.37
2018-01-25T04:10:31.766Z,45.93
2018-01-25T04:13:01.510Z,29.47
2018-01-25T04:15:31.977Z,56.03
2018-01-25T04:18:02.506Z,55.77
2018-01-25T04:20:32.815Z,64.03
2018-01-25T04:23:04.261Z,55.27
2018-01-25T04:25:33.994Z,52.27
2018-01-25T04:28:04.154Z,57.87
2018-01-25T04:30:34.620Z,56.53
2018-01-25T04:33:04.345Z,45.27
2018-01-25T04:35:34.042Z,53.73
2018-01-25T04:38:03.774Z,45.50
2018-01-25T04:40:33.646Z,50.30
2018-01-25T04:43:03.550Z,39.37
2018-01-25T04:45:34.029Z,40.00
2018-01-25T04:48:03.911Z,31.80
2018-01-25T04:50:35.334Z,34.73
2018-01-25T04:53:05.805Z,36.10
2018-01-25T04:55:35.582Z,34.50
2018-01-25T04:58:06.075Z,33.30
2018-01-25T05:00:35.902Z,39.27
2018-01-25T05:03:05.650Z,32.80
2018-01-25T05:05:35.369Z,27.73
2018-01-25T05:08:05.050Z,30.20
2018-01-25T05:10:35.509Z,41.00
2018-01-25T05:13:05.227Z,24.60
2018-01-25T05:15:35.035Z,19.63
2018-01-25T05:18:05.270Z,21.97
2018-01-25T05:20:35.205Z,21.73
2018-01-25T05:23:05.070Z,16.80
2018-01-25T05:25:34.781Z,18.27
2018-01-25T05:28:04.696Z,18.33
2018-01-25T05:30:34.506Z,21.90
2018-01-25T05:33:04.401Z,25.60
2018-01-25T05:35:35.045Z,18.20
2018-01-25T05:38:04.732Z,17.20
2018-01-25T05:40:35.254Z,11.97
2018-01-25T05:43:05.693Z,18.03
2018-01-25T05:45:36.166Z,21.63
2018-01-25T05:48:05.830Z,23.13
2018-01-25T05:50:37.486Z,22.63
2018-01-25T05:53:07.943Z,23.23
2018-01-25T05:55:38.128Z,20.03
2018-01-25T05:58:08.621Z,26.73
2018-01-25T06:00:38.522Z,24.43
2018-01-25T06:03:08.991Z,27.97
2018-01-25T06:05:39.453Z,21.40
2018-01-25T06:08:09.127Z,27.73
2018-01-25T06:10:39.872Z,20.80
2018-01-25T06:13:10.481Z,20.70
2018-01-25T06:15:40.187Z,23.40
2018-01-25T06:18:10.536Z,22.37
2018-01-25T06:20:41.071Z,26.93
2018-01-25T06:23:12.276Z,17.93
2018-01-25T06:25:42.149Z,16.30
2018-01-25T06:28:11.844Z,32.23
2018-01-25T06:30:42.064Z,24.90
2018-01-25T06:33:11.774Z,18.30
2018-01-25T06:35:42.309Z,18.00
2018-01-25T06:38:12.942Z,13.93
2018-01-25T06:40:42.678Z,10.33
2018-01-25T06:43:12.369Z,10.70
2018-01-25T06:45:42.262Z,12.10
2018-01-25T06:48:12.740Z,14.03
2018-01-25T06:50:43.344Z,13.10
2018-01-25T06:53:13.030Z,13.80
2018-01-25T06:55:43.473Z,10.40
2018-01-25T06:58:13.202Z,10.70
2018-01-25T07:00:42.902Z,9.97
2018-01-25T07:03:12.599Z,7.50
2018-01-25T07:05:42.382Z,7.53
2018-01-25T07:08:12.849Z,12.40
2018-01-25T07:10:42.853Z,10.97
2018-01-25T07:13:12.640Z,12.77
2018-01-25T07:15:43.129Z,47.13
2018-01-25T07:18:13.026Z,14.30
2018-01-25T07:20:42.731Z,14.83
2018-01-25T07:23:12.462Z,25.70
2018-01-25T07:25:42.197Z,16.70
2018-01-25T07:28:12.031Z,16.53
2018-01-25T07:30:42.207Z,16.20
2018-01-25T07:33:11.940Z,11.97
2018-01-25T07:35:41.944Z,10.17
2018-01-25T07:38:11.630Z,11.53
2018-01-25T07:40:41.349Z,11.27
2018-01-25T07:43:11.318Z,12.90
2018-01-25T07:45:41.823Z,12.77
2018-01-25T07:48:11.560Z,8.57
2018-01-25T07:50:41.299Z,8.70
2018-01-25T07:53:11.006Z,8.77
2018-01-25T07:55:40.730Z,9.30
2018-01-25T07:58:25.045Z,9.80
2018-01-25T08:00:54.991Z,10.53
2018-01-25T08:03:24.667Z,10.30
2018-01-25T08:05:54.486Z,9.90
2018-01-25T08:08:24.179Z,11.47
2018-01-25T08:10:54.653Z,10.10
2018-01-25T08:13:29.497Z,12.60
2018-01-25T08:16:04.350Z,13.87
2018-01-25T08:18:34.232Z,13.97
2018-01-25T08:21:04.030Z,13.63
2018-01-25T08:23:33.899Z,13.13
2018-01-25T08:26:04.429Z,16.87
2018-01-25T08:28:35.531Z,31.87
2018-01-25T08:31:05.644Z,23.70
2018-01-25T08:33:35.350Z,16.90
2018-01-25T08:36:05.077Z,13.17
2018-01-25T08:38:34.761Z,13.00
2018-01-25T08:41:04.510Z,15.30
2018-01-25T08:43:34.207Z,13.30
2018-01-25T08:46:03.954Z,16.90
2018-01-25T08:48:33.798Z,13.60
2018-01-25T08:51:03.843Z,15.50
2018-01-25T08:53:34.141Z,11.63
2018-01-25T08:56:03.858Z,19.30
2018-01-25T08:58:33.549Z,15.63
2018-01-25T09:01:03.539Z,13.00
2018-01-25T09:03:34.282Z,13.67
2018-01-25T09:06:06.156Z,15.27
2018-01-25T09:08:35.842Z,17.37
2018-01-25T09:11:06.315Z,11.40
2018-01-25T09:13:36.079Z,11.70
2018-01-25T09:16:06.592Z,18.60
2018-01-25T09:18:36.297Z,19.40
2018-01-25T09:21:06.280Z,29.83
2018-01-25T09:23:36.007Z,15.07
2018-01-25T09:26:06.437Z,24.63
2018-01-25T09:28:36.202Z,19.57
2018-01-25T09:31:05.957Z,18.10
2018-01-25T09:33:35.695Z,18.23
2018-01-25T09:36:05.411Z,22.27
2018-01-25T09:38:36.605Z,27.33
2018-01-25T09:41:06.309Z,21.47
2018-01-25T09:43:35.998Z,18.20
2018-01-25T09:46:05.726Z,20.73
2018-01-25T09:48:35.402Z,22.43
2018-01-25T09:51:05.833Z,18.63
2018-01-25T09:53:36.352Z,23.87
2018-01-25T09:56:06.829Z,22.90
2018-01-25T09:58:36.502Z,26.17
2018-01-25T10:01:06.210Z,21.43
2018-01-25T10:03:36.293Z,23.80
2018-01-25T10:06:05.947Z,26.77
2018-01-25T10:08:36.791Z,24.60
2018-01-25T10:11:07.236Z,23.07
2018-01-25T10:13:37.283Z,21.30
2018-01-25T10:16:06.994Z,21.43
2018-01-25T10:18:36.681Z,25.67
2018-01-25T10:21:06.387Z,19.97
2018-01-25T10:23:36.131Z,19.37
2018-01-25T10:26:05.816Z,19.67
2018-01-25T10:28:35.566Z,27.43
2018-01-25T10:31:06.218Z,18.53
2018-01-25T10:33:35.906Z,21.50
2018-01-25T10:36:06.332Z,18.00
2018-01-25T10:38:36.825Z,20.27
2018-01-25T10:41:06.525Z,21.53
2018-01-25T10:43:37.436Z,23.67
2018-01-25T10:46:07.952Z,17.27
2018-01-25T10:48:37.694Z,19.60
2018-01-25T10:51:07.616Z,22.50
2018-01-25T10:53:37.325Z,17.57
2018-01-25T10:56:07.065Z,26.73
2018-01-25T10:58:37.538Z,19.13
2018-01-25T11:01:12.461Z,22.13
2018-01-25T11:03:43.417Z,29.40
2018-01-25T11:06:14.156Z,21.10
2018-01-25T11:08:43.883Z,21.77
2018-01-25T11:11:13.736Z,25.20
2018-01-25T11:13:44.238Z,24.53
2018-01-25T11:16:14.038Z,19.63
2018-01-25T11:18:44.397Z,21.23
2018-01-25T11:21:14.826Z,24.20
2018-01-25T11:23:45.250Z,22.47
2018-01-25T11:26:15.728Z,22.33
2018-01-25T11:28:45.450Z,20.80
2018-01-25T11:31:15.202Z,21.53
2018-01-25T11:33:45.711Z,21.97
2018-01-25T11:36:16.233Z,22.60
2018-01-25T11:38:45.941Z,21.53
2018-01-25T11:41:15.642Z,23.13
2018-01-25T11:43:46.245Z,25.80
2018-01-25T11:46:15.942Z,26.80
2018-01-25T11:48:46.573Z,27.17
2018-01-25T11:51:16.259Z,32.33
2018-01-25T11:53:46.714Z,20.07
2018-01-25T11:56:17.988Z,27.47
2018-01-25T11:58:47.697Z,26.10
2018-01-25T12:01:17.991Z,34.73
2018-01-25T12:03:47.658Z,36.80
2018-01-25T12:06:17.341Z,30.10
2018-01-25T12:08:47.027Z,27.80
2018-01-25T12:11:16.699Z,26.13
2018-01-25T12:13:47.213Z,21.23
2018-01-25T12:16:17.173Z,19.70
2018-01-25T12:18:46.845Z,19.10
2018-01-25T12:21:17.406Z,32.57
2018-01-25T12:23:47.115Z,19.50
2018-01-25T12:26:16.810Z,26.00
2018-01-25T12:28:46.541Z,26.13
2018-01-25T12:31:16.231Z,18.23
2018-01-25T12:33:46.745Z,13.23
2018-01-25T12:36:17.273Z,17.43
2018-01-25T12:38:47.766Z,18.47
2018-01-25T12:41:17.529Z,14.83
2018-01-25T12:43:47.234Z,16.20
2018-01-25T12:46:17.698Z,16.90
2018-01-25T12:48:47.489Z,14.20
2018-01-25T12:51:17.197Z,17.77
2018-01-25T12:53:47.013Z,22.27
2018-01-25T12:56:16.840Z,14.70
2018-01-25T12:58:46.635Z,20.60
2018-01-25T13:01:16.802Z,21.77
2018-01-25T13:03:46.640Z,16.83
2018-01-25T13:06:17.309Z,13.40
2018-01-25T13:08:47.218Z,14.57
2018-01-25T13:11:17.050Z,13.13
2018-01-25T13:13:47.598Z,17.17
2018-01-25T13:16:17.506Z,12.13
2018-01-25T13:18:47.408Z,17.23
2018-01-25T13:21:17.334Z,16.40
2018-01-25T13:23:47.209Z,15.37
2018-01-25T13:26:17.569Z,24.90
2018-01-25T13:28:47.680Z,24.90
2018-01-25T13:31:17.587Z,28.33
2018-01-25T13:33:48.907Z,15.90
2018-01-25T13:36:18.799Z,43.53
2018-01-25T13:38:49.447Z,17.90
2018-01-25T13:41:20.146Z,20.67
2018-01-25T13:43:49.999Z,34.13
2018-01-25T13:46:19.885Z,43.97
2018-01-25T13:48:49.828Z,22.13
2018-01-25T13:51:19.737Z,25.37
2018-01-25T13:53:50.434Z,24.10
2018-01-25T13:56:20.301Z,22.77
2018-01-25T13:58:50.496Z,19.20
2018-01-25T14:01:21.253Z,28.37
2018-01-25T14:03:51.167Z,22.07
2018-01-25T14:06:21.066Z,21.33
2018-01-25T14:08:51.150Z,33.40
2018-01-25T14:11:20.990Z,24.93
2018-01-25T14:13:51.701Z,20.40
2018-01-25T14:16:21.867Z,25.57
2018-01-25T14:18:52.213Z,19.63
2018-01-25T14:21:22.463Z,27.30
2018-01-25T14:23:52.822Z,26.70
2018-01-25T14:26:23.469Z,28.13
2018-01-25T14:28:53.467Z,24.03
2018-01-25T14:31:24.126Z,29.17
2018-01-25T14:33:54.004Z,29.60
2018-01-25T14:36:24.738Z,32.73
2018-01-25T14:38:55.441Z,32.13
2018-01-25T14:41:26.721Z,36.83
2018-01-25T14:43:57.365Z,34.33
2018-01-25T14:46:28.438Z,25.07
2018-01-25T14:48:58.284Z,29.63
2018-01-25T14:51:28.224Z,34.00
2018-01-25T14:53:58.834Z,24.17
2018-01-25T14:56:28.673Z,25.30
2018-01-25T14:58:59.297Z,30.33
2018-01-25T15:01:30.073Z,28.13
2018-01-25T15:04:01.105Z,20.90
2018-01-25T15:06:30.992Z,17.50
2018-01-25T15:09:01.590Z,25.13
2018-01-25T15:11:31.614Z,15.10
2018-01-25T15:14:01.501Z,17.33
2018-01-25T15:16:31.358Z,22.50
2018-01-25T15:19:01.989Z,28.33
2018-01-25T15:21:32.554Z,18.30
2018-01-25T15:24:02.400Z,14.60
2018-01-25T15:26:32.425Z,20.53
2018-01-25T15:29:02.227Z,15.37
2018-01-25T15:31:32.025Z,11.60
2018-01-25T15:34:01.785Z,14.33
2018-01-25T15:36:32.526Z,14.33
2018-01-25T15:39:03.077Z,17.00
2018-01-25T15:41:32.834Z,31.80
2018-01-25T15:44:02.565Z,15.07
2018-01-25T15:46:33.078Z,33.37
2018-01-25T15:49:02.799Z,14.40
2018-01-25T15:51:34.666Z,21.93
2018-01-25T15:54:04.385Z,13.30
2018-01-25T15:56:34.106Z,28.20
2018-01-25T15:59:03.811Z,15.60
2018-01-25T16:01:33.686Z,17.67
2018-01-25T16:04:03.428Z,15.30
2018-01-25T16:06:33.933Z,21.20
2018-01-25T16:09:03.691Z,11.37
2018-01-25T16:11:33.590Z,15.67
2018-01-25T16:14:03.269Z,9.23
2018-01-25T16:16:32.984Z,13.20
2018-01-25T16:19:03.462Z,25.90
2018-01-25T16:21:33.167Z,16.23
2018-01-25T16:24:02.881Z,13.77
2018-01-25T16:26:32.558Z,11.97
2018-01-25T16:29:03.399Z,20.40
2018-01-25T16:31:33.118Z,11.97
2018-01-25T16:34:02.820Z,14.90
2018-01-25T16:36:32.522Z,15.93
2018-01-25T16:39:03.013Z,16.50
2018-01-25T16:41:32.717Z,10.60
2018-01-25T16:44:02.460Z,19.50
2018-01-25T16:46:32.941Z,12.83
2018-01-25T16:49:02.781Z,11.93
2018-01-25T16:51:32.466Z,15.90
2018-01-25T16:54:02.155Z,10.40
2018-01-25T16:56:31.837Z,13.97
2018-01-25T16:59:02.468Z,12.80
2018-01-25T17:01:32.915Z,11.67
2018-01-25T17:04:02.629Z,21.10
2018-01-25T17:06:32.334Z,9.63
2018-01-25T17:09:02.066Z,8.13
2018-01-25T17:11:31.832Z,8.90
2018-01-25T17:14:01.516Z,9.10
2018-01-25T17:16:31.229Z,11.10
2018-01-25T17:19:00.942Z,11.50
2018-01-25T17:21:30.662Z,15.17
2018-01-25T17:24:01.129Z,21.83
2018-01-25T17:26:30.834Z,13.20
2018-01-25T17:29:00.529Z,19.73
2018-01-25T17:31:30.237Z,11.23
2018-01-25T17:33:59.955Z,15.20
2018-01-25T17:36:29.697Z,16.37
2018-01-25T17:38:59.448Z,17.63
2018-01-25T17:41:30.522Z,13.60
2018-01-25T17:44:01.186Z,16.40
2018-01-25T17:46:30.912Z,14.50
2018-01-25T17:51:35.107Z,11.53
2018-01-25T17:54:04.983Z,15.93
2018-01-25T17:56:35.473Z,13.53
2018-01-25T17:59:05.950Z,14.53
2018-01-25T18:01:35.864Z,13.67
2018-01-25T18:04:05.551Z,24.97
2018-01-25T18:06:35.965Z,15.97
2018-01-25T18:09:06.034Z,19.27
2018-01-25T18:11:35.782Z,16.70
2018-01-25T18:14:05.488Z,12.73
2018-01-25T18:16:35.196Z,18.90
2018-01-25T18:19:04.906Z,29.33
2018-01-25T18:21:35.406Z,27.00
2018-01-25T18:24:05.226Z,21.80
2018-01-25T18:26:34.926Z,25.37
2018-01-25T18:29:04.592Z,19.33
2018-01-25T18:31:34.282Z,15.40
2018-01-25T18:34:04.066Z,18.60
2018-01-25T18:36:33.774Z,20.67
2018-01-25T18:39:03.566Z,15.17
2018-01-25T18:41:33.317Z,16.93
2018-01-25T18:44:03.126Z,23.30
2018-01-25T18:46:32.910Z,23.43
2018-01-25T18:49:02.594Z,23.63
2018-01-25T18:51:33.082Z,16.47
2018-01-25T18:54:02.810Z,20.47
2018-01-25T18:56:32.559Z,15.37
2018-01-25T18:59:02.240Z,19.47
2018-01-25T19:01:32.737Z,27.47
2018-01-25T19:04:02.485Z,14.00
2018-01-25T19:06:32.978Z,20.00
2018-01-25T19:09:02.707Z,24.20
2018-01-25T19:11:32.427Z,19.43
2018-01-25T19:14:02.866Z,25.03
2018-01-25T19:16:33.347Z,23.60
2018-01-25T19:19:03.023Z,29.07
2018-01-25T19:21:32.724Z,20.20
2018-01-25T19:24:02.457Z,14.67
2018-01-25T19:26:32.317Z,20.60
2018-01-25T19:29:02.776Z,16.30
2018-01-25T19:31:32.496Z,25.13
2018-01-25T19:34:02.262Z,18.60
2018-01-25T19:36:31.962Z,16.30
2018-01-25T19:39:01.709Z,26.40
2018-01-25T19:41:31.444Z,23.50
2018-01-25T19:44:01.323Z,18.90
2018-01-25T19:46:31.826Z,21.27
2018-01-25T19:49:01.547Z,20.40
2018-01-25T19:51:32.100Z,20.00
2018-01-25T19:54:01.828Z,17.00
2018-01-25T19:56:32.022Z,21.50
2018-01-25T19:59:02.469Z,20.70
2018-01-25T20:01:32.197Z,32.07
2018-01-25T20:04:01.887Z,18.93
2018-01-25T20:06:31.615Z,22.00
2018-01-25T20:09:06.575Z,16.40
2018-01-25T20:11:36.328Z,27.73
2018-01-25T20:14:06.069Z,23.90
2018-01-25T20:16:35.798Z,22.43
2018-01-25T20:19:05.574Z,28.57
2018-01-25T20:21:35.340Z,23.60
2018-01-25T20:24:05.017Z,27.33
2018-01-25T20:26:34.718Z,18.67
2018-01-25T20:29:04.421Z,24.03
2018-01-25T20:31:34.137Z,34.80
2018-01-25T20:34:03.863Z,31.20
2018-01-25T20:36:33.601Z,25.40
2018-01-25T20:39:03.330Z,32.10
2018-01-25T20:41:33.840Z,22.17
2018-01-25T20:44:03.529Z,24.83
2018-01-25T20:46:33.277Z,33.13
2018-01-25T20:49:03.762Z,22.50
2018-01-25T20:51:33.486Z,28.07
2018-01-25T20:54:03.227Z,25.83
2018-01-25T20:56:32.955Z,34.07
2018-01-25T20:59:02.691Z,27.10
2018-01-25T21:01:32.438Z,21.73
2018-01-25T21:04:02.103Z,22.13
2018-01-25T21:06:31.867Z,19.97
2018-01-25T21:09:02.359Z,38.27
2018-01-25T21:11:32.094Z,36.27
2018-01-25T21:14:01.766Z,20.57
2018-01-25T21:16:31.546Z,22.90
2018-01-25T21:19:01.311Z,35.00
2018-01-25T21:21:31.051Z,21.40
2018-01-25T21:24:01.530Z,22.70
2018-01-25T21:26:31.231Z,25.17
2018-01-25T21:29:00.927Z,23.00
2018-01-25T21:31:30.648Z,21.17
2018-01-25T21:34:00.391Z,32.37
2018-01-25T21:36:30.128Z,28.27
2018-01-25T21:39:00.576Z,28.93
2018-01-25T21:41:30.341Z,20.57
2018-01-25T21:44:00.004Z,34.37
2018-01-25T21:46:29.734Z,24.93
2018-01-25T21:48:59.430Z,35.00
2018-01-25T21:51:29.178Z,31.73
2018-01-25T21:53:58.886Z,24.10
2018-01-25T21:56:28.631Z,21.90
2018-01-25T21:58:58.365Z,26.60
2018-01-25T22:01:28.089Z,31.10
2018-01-25T22:03:57.839Z,25.03
2018-01-25T22:06:28.313Z,34.03
2018-01-25T22:08:58.056Z,25.33
2018-01-25T22:11:27.746Z,23.87
2018-01-25T22:13:57.466Z,28.00
2018-01-25T22:16:27.174Z,30.30
2018-01-25T22:18:56.890Z,26.73
2018-01-25T22:21:26.593Z,27.97
2018-01-25T22:23:56.348Z,24.37
2018-01-25T22:26:26.880Z,21.60
2018-01-25T22:28:57.346Z,18.63
2018-01-25T22:31:27.028Z,33.23
2018-01-25T22:33:57.545Z,25.20
2018-01-25T22:36:28.017Z,21.40
2018-01-25T22:38:57.681Z,21.60
2018-01-25T22:41:28.170Z,23.07
2018-01-25T22:43:57.848Z,22.80
2018-01-25T22:46:27.592Z,33.93
2018-01-25T22:48:57.338Z,35.73
2018-01-25T22:51:27.853Z,24.83
2018-01-25T22:53:57.574Z,24.27
2018-01-25T22:56:28.145Z,19.47
2018-01-25T22:58:57.861Z,28.53
2018-01-25T23:01:27.595Z,28.17
2018-01-25T23:03:57.298Z,19.10
2018-01-25T23:06:27.039Z,25.57
2018-01-25T23:08:56.732Z,22.60
2018-01-25T23:11:26.452Z,26.93
2018-01-25T23:13:56.154Z,25.63
2018-01-25T23:16:25.887Z,35.23
2018-01-25T23:18:56.389Z,36.13
2018-01-25T23:21:26.173Z,32.17
2018-01-25T23:23:55.860Z,31.33
2018-01-25T23:26:25.573Z,34.20
2018-01-25T23:28:55.250Z,28.13
2018-01-25T23:31:25.761Z,22.40
2018-01-25T23:33:55.450Z,29.53
2018-01-25T23:36:25.173Z,26.10
2018-01-25T23:38:54.882Z,25.80
2018-01-25T23:41:24.605Z,22.97
2018-01-25T23:43:54.294Z,23.97
2018-01-25T23:46:24.090Z,16.07
2018-01-25T23:48:54.566Z,24.40
2018-01-25T23:51:25.080Z,31.00
2018-01-25T23:53:54.772Z,38.63
2018-01-25T23:56:24.484Z,20.27
2018-01-25T23:58:54.230Z,32.43
